Time;durP1;ratioP1;P1;durP2;ratioP2;P2;SDS_P1;SDS_P2;PMS_P1;PMS_P2;Temp;Humidity;BMP_temperature;BMP_pressure;BME280_temperature;BME280_humidity;BME280_pressure;Samples;Min_cycle;Max_cycle;Signal;HPM_P1;HPM_P2
2023/07/08 00:01:57;;;;;;;7.53;7.00;;;26.10;26.80;;;;;;20617;6808;306495;-76
2023/07/08 00:04:23;;;;;;;7.80;7.00;;;26.10;26.80;;;;;;20621;6808;306517;-77
2023/07/08 00:06:49;;;;;;;9.13;6.87;;;26.50;26.50;;;;;;20823;6808;117420;-77
2023/07/08 00:09:15;;;;;;;6.75;6.05;;;26.50;26.70;;;;;;20824;6808;117706;-77
2023/07/08 00:11:39;;;;;;;7.62;6.93;;;26.20;26.90;;;;;;20578;6808;305957;-77
2023/07/08 00:14:06;;;;;;;7.43;6.83;;;26.60;26.60;;;;;;20606;6809;312756;-76
2023/07/08 00:16:31;;;;;;;6.93;6.23;;;26.60;26.60;;;;;;20822;6809;117950;-77
2023/07/08 00:18:57;;;;;;;6.85;6.22;;;26.50;26.60;;;;;;20826;6809;117201;-76
2023/07/08 00:21:22;;;;;;;10.77;6.18;;;26.20;26.60;;;;;;20811;6809;122933;-77
2023/07/08 00:23:49;;;;;;;7.30;6.80;;;26.20;25.90;;;;;;20562;6811;277541;-77
2023/07/08 00:26:17;;;;;;;6.53;6.03;;;26.20;25.90;;;;;;20792;6811;117236;-77
2023/07/08 00:28:42;;;;;;;6.67;6.00;;;26.30;26.10;;;;;;20767;6823;117349;-77
2023/07/08 00:31:08;;;;;;;7.30;6.70;;;26.10;26.20;;;;;;20772;6823;118164;-76
2023/07/08 00:33:34;;;;;;;6.70;6.10;;;25.80;26.40;;;;;;20810;6805;119566;-76
2023/07/08 00:36:01;;;;;;;6.13;5.73;;;25.80;26.40;;;;;;20841;6805;117419;-76
2023/07/08 00:38:28;;;;;;;6.70;6.03;;;25.70;26.60;;;;;;20840;6805;117457;-76
2023/07/08 00:40:52;;;;;;;6.90;6.20;;;25.60;26.90;;;;;;20836;6805;118196;-76
2023/07/08 00:43:18;;;;;;;7.50;7.00;;;25.50;27.00;;;;;;20592;6805;312987;-76
2023/07/08 00:45:47;;;;;;;7.37;6.70;;;26.20;26.80;;;;;;20536;6823;277076;-76
2023/07/08 00:48:23;;;;;;;6.47;5.97;;;26.20;26.40;;;;;;20746;6830;117048;-77
2023/07/08 00:50:48;;;;;;;7.63;7.10;;;26.20;26.40;;;;;;20543;6831;307604;-77
2023/07/08 00:53:27;;;;;;;7.50;6.80;;;26.40;26.80;;;;;;20545;6832;277548;-77
2023/07/08 00:55:53;;;;;;;6.73;6.13;;;26.60;27.60;;;;;;20766;6820;117270;-77
2023/07/08 00:58:19;;;;;;;7.00;6.50;;;26.10;27.90;;;;;;20825;6805;120929;-76
2023/07/08 01:00:45;;;;;;;7.22;6.72;;;26.00;27.80;;;;;;20593;6805;306453;-76
2023/07/08 01:03:10;;;;;;;7.43;6.80;;;26.10;28.10;;;;;;20595;6817;276650;-77
2023/07/08 01:05:38;;;;;;;6.37;5.83;;;26.20;28.10;;;;;;20767;6817;122899;-77
2023/07/08 01:08:01;;;;;;;7.23;6.53;;;26.00;28.20;;;;;;20778;6819;118091;-77
2023/07/08 01:10:29;;;;;;;7.47;6.63;;;25.20;29.20;;;;;;20781;6819;117106;-77
2023/07/08 01:12:54;;;;;;;7.10;6.47;;;25.20;28.70;;;;;;20721;6837;117739;-76
2023/07/08 01:15:20;;;;;;;7.67;7.07;;;25.00;29.10;;;;;;20540;6832;301904;-77
2023/07/08 01:17:45;;;;;;;7.03;6.33;;;25.10;29.80;;;;;;20731;6832;117500;-77
2023/07/08 01:20:12;;;;;;;8.07;7.40;;;25.00;29.70;;;;;;20537;6832;308115;-77
2023/07/08 01:22:37;;;;;;;7.70;7.17;;;25.10;29.90;;;;;;20540;6832;279054;-77
2023/07/08 01:25:03;;;;;;;7.87;7.28;;;25.30;30.00;;;;;;20515;6838;313638;-77
2023/07/08 01:27:28;;;;;;;7.93;7.33;;;25.40;29.60;;;;;;20512;6823;311937;-77
2023/07/08 01:29:54;;;;;;;7.28;6.68;;;25.20;29.60;;;;;;20732;6837;121855;-77
2023/07/08 01:32:20;;;;;;;6.77;6.27;;;25.20;29.60;;;;;;20766;6819;117181;-75
2023/07/08 01:34:59;;;;;;;6.90;6.40;;;24.70;29.70;;;;;;20786;6820;117040;-77
2023/07/08 01:37:11;;;;;;;7.50;6.70;;;24.10;29.90;;;;;;20719;6830;117232;-76
2023/07/08 01:39:37;;;;;;;6.67;6.17;;;24.10;29.90;;;;;;20755;6826;126888;-77
2023/07/08 01:42:03;;;;;;;6.57;6.07;;;23.90;30.00;;;;;;20760;6830;117683;-76
2023/07/08 01:44:28;;;;;;;7.10;6.60;;;23.80;30.30;;;;;;20544;6828;278769;-76
2023/07/08 01:46:57;;;;;;;7.47;6.97;;;24.30;30.60;;;;;;20551;6825;310903;-77
2023/07/08 01:49:23;;;;;;;6.13;5.63;;;24.40;30.70;;;;;;20706;6822;120130;-77
2023/07/08 01:51:49;;;;;;;7.57;6.97;;;24.20;30.40;;;;;;20556;6816;335969;-77
2023/07/08 01:54:15;;;;;;;7.82;7.12;;;24.50;30.00;;;;;;20589;6816;306887;-77
2023/07/08 01:56:40;;;;;;;7.07;6.40;;;24.50;30.40;;;;;;20801;6816;117172;-77
2023/07/08 01:59:07;;;;;;;6.62;6.12;;;24.00;31.20;;;;;;20813;6814;117011;-76
2023/07/08 02:01:32;;;;;;;6.83;6.33;;;23.90;30.40;;;;;;20783;6815;117466;-77
2023/07/08 02:03:58;;;;;;;6.57;6.07;;;23.70;30.70;;;;;;20811;6816;117668;-77
2023/07/08 02:06:23;;;;;;;6.50;5.97;;;23.50;31.00;;;;;;20803;6816;117204;-76
2023/07/08 02:08:50;;;;;;;6.73;6.23;;;23.40;31.50;;;;;;20806;6816;117308;-76
2023/07/08 02:11:15;;;;;;;7.78;7.22;;;23.20;31.70;;;;;;20595;6816;278785;-76
2023/07/08 02:13:40;;;;;;;7.95;7.25;;;23.50;31.80;;;;;;20573;6816;335477;-77
2023/07/08 02:16:06;;;;;;;7.65;6.47;;;23.90;31.00;;;;;;20824;6816;117193;-76
2023/07/08 02:18:32;;;;;;;7.93;7.30;;;23.80;30.80;;;;;;20596;6816;306608;-76
2023/07/08 02:20:58;;;;;;;6.77;6.20;;;23.90;30.90;;;;;;20814;6816;118085;-76
2023/07/08 02:23:24;;;;;;;7.37;6.87;;;23.90;30.90;;;;;;20567;6816;306294;-77
2023/07/08 02:25:49;;;;;;;7.63;6.40;;;23.90;30.60;;;;;;20805;6816;117661;-77
2023/07/08 02:28:15;;;;;;;8.18;7.30;;;23.80;30.70;;;;;;20586;6816;305656;-76
2023/07/08 02:30:40;;;;;;;7.37;6.67;;;23.90;30.70;;;;;;20804;6816;117969;-76
2023/07/08 02:33:06;;;;;;;7.90;7.30;;;23.80;30.80;;;;;;20595;6815;276608;-76
2023/07/08 02:35:31;;;;;;;8.68;7.78;;;23.90;30.80;;;;;;20537;6828;281985;-76
2023/07/08 02:37:58;;;;;;;6.95;6.45;;;24.20;30.60;;;;;;20755;6831;117296;-79
2023/07/08 02:40:24;;;;;;;6.80;6.30;;;24.10;30.70;;;;;;20763;6831;122156;-76
2023/07/08 02:42:50;;;;;;;7.70;7.10;;;23.90;31.30;;;;;;20528;6831;326430;-76
2023/07/08 02:45:17;;;;;;;8.27;7.60;;;23.90;31.30;;;;;;20548;6831;306753;-76
2023/07/08 02:47:42;;;;;;;8.27;7.37;;;24.20;31.60;;;;;;20535;6831;281154;-76
2023/07/08 02:50:09;;;;;;;7.20;6.70;;;24.30;31.60;;;;;;20761;6831;117180;-76
2023/07/08 02:52:34;;;;;;;8.57;7.78;;;24.30;31.60;;;;;;20540;6831;341112;-76
2023/07/08 02:55:01;;;;;;;7.23;6.73;;;24.30;31.80;;;;;;20754;6831;117032;-77
2023/07/08 02:57:27;;;;;;;8.23;7.60;;;24.10;31.80;;;;;;20530;6831;306114;-76
2023/07/08 02:59:52;;;;;;;8.43;7.73;;;24.20;32.30;;;;;;20541;6831;306641;-76
2023/07/08 03:02:18;;;;;;;7.87;7.27;;;24.30;32.10;;;;;;20758;6831;117961;-76
2023/07/08 03:04:43;;;;;;;8.00;7.40;;;24.10;32.10;;;;;;20542;6831;306292;-76
2023/07/08 03:07:11;;;;;;;7.10;6.60;;;24.10;32.50;;;;;;20757;6831;121500;-76
2023/07/08 03:09:34;;;;;;;8.27;7.65;;;23.90;32.50;;;;;;20523;6831;277257;-76
2023/07/08 03:12:00;;;;;;;8.30;7.63;;;23.90;33.20;;;;;;20553;6829;307121;-77
2023/07/08 03:14:25;;;;;;;8.57;7.87;;;24.10;33.30;;;;;;20555;6831;339948;-76
2023/07/08 03:16:52;;;;;;;8.97;8.20;;;24.20;33.00;;;;;;20556;6831;301436;-76
2023/07/08 03:19:18;;;;;;;8.23;7.53;;;24.30;33.10;;;;;;20557;6831;299386;-76
2023/07/08 03:21:43;;;;;;;8.00;7.43;;;24.40;32.60;;;;;;20529;6831;305584;-77
2023/07/08 03:24:12;;;;;;;7.10;6.60;;;24.50;32.60;;;;;;20757;6831;120901;-76
2023/07/08 03:26:37;;;;;;;8.00;7.40;;;24.20;32.70;;;;;;20539;6831;336078;-77
2023/07/08 03:29:03;;;;;;;8.60;7.90;;;24.10;33.30;;;;;;20567;6823;311729;-77
2023/07/08 03:31:29;;;;;;;7.25;6.65;;;23.90;33.30;;;;;;20743;6828;117164;-76
2023/07/08 03:33:55;;;;;;;8.38;7.70;;;23.90;34.00;;;;;;20561;6828;314736;-76
2023/07/08 03:36:24;;;;;;;8.70;8.00;;;23.80;34.00;;;;;;20767;6830;116945;-77
2023/07/08 03:38:46;;;;;;;8.67;8.00;;;23.60;33.80;;;;;;20574;6819;321927;-77
2023/07/08 03:41:12;;;;;;;6.93;6.33;;;23.70;34.60;;;;;;20815;6815;119729;-77
2023/07/08 03:43:38;;;;;;;8.60;7.90;;;23.50;34.30;;;;;;20587;6815;276867;-76
2023/07/08 03:46:03;;;;;;;8.23;7.62;;;23.60;34.40;;;;;;20601;6815;310962;-77
2023/07/08 03:48:29;;;;;;;8.30;7.60;;;23.80;34.40;;;;;;20595;6815;311184;-76
2023/07/08 03:50:54;;;;;;;8.33;7.53;;;24.00;34.20;;;;;;20599;6815;305544;-77
2023/07/08 03:53:20;;;;;;;7.47;6.77;;;24.10;33.90;;;;;;20808;6815;117383;-77
2023/07/08 03:55:45;;;;;;;9.15;8.35;;;23.90;34.00;;;;;;20580;6815;277675;-76
2023/07/08 03:58:11;;;;;;;8.80;8.10;;;23.80;34.40;;;;;;20596;6815;330543;-76
2023/07/08 04:00:36;;;;;;;8.63;7.87;;;24.00;34.40;;;;;;20809;6815;118030;-77
2023/07/08 04:03:04;;;;;;;8.43;7.68;;;23.90;34.90;;;;;;20592;6815;306370;-76
2023/07/08 04:05:31;;;;;;;7.57;6.80;;;23.80;34.90;;;;;;20789;6815;119210;-77
2023/07/08 04:07:56;;;;;;;9.20;6.73;;;23.80;34.80;;;;;;20806;6815;119492;-76
2023/07/08 04:10:22;;;;;;;8.50;7.75;;;23.50;34.40;;;;;;20595;6815;336104;-76
2023/07/08 04:12:47;;;;;;;7.75;7.15;;;23.80;34.70;;;;;;20810;6815;117461;-76
2023/07/08 04:15:13;;;;;;;7.60;6.28;;;23.80;34.70;;;;;;20812;6815;117568;-76
2023/07/08 04:17:45;;;;;;;7.23;6.63;;;23.80;35.30;;;;;;20792;6815;117135;-77
2023/07/08 04:20:11;;;;;;;8.05;7.35;;;23.70;35.60;;;;;;20590;6815;283624;-77
2023/07/08 04:22:37;;;;;;;8.02;7.53;;;24.00;37.50;;;;;;20585;6813;307132;-76
2023/07/08 04:25:05;;;;;;;7.28;6.78;;;24.50;36.70;;;;;;20806;6814;116939;-76
2023/07/08 04:27:28;;;;;;;7.23;6.70;;;24.50;36.70;;;;;;20784;6815;128515;-77
2023/07/08 04:29:54;;;;;;;7.97;7.37;;;24.30;36.70;;;;;;20594;6815;307033;-77
2023/07/08 04:32:24;;;;;;;8.23;7.63;;;24.80;37.20;;;;;;20612;6815;277638;-76
2023/07/08 04:34:46;;;;;;;8.23;7.62;;;24.80;37.30;;;;;;20590;6815;338085;-76
2023/07/08 04:37:12;;;;;;;7.73;7.23;;;25.10;36.40;;;;;;20810;6815;116939;-77
2023/07/08 04:39:38;;;;;;;7.80;7.12;;;24.80;36.80;;;;;;20776;6815;129576;-77
2023/07/08 04:42:04;;;;;;;8.17;7.47;;;24.60;37.00;;;;;;20809;6815;117284;-77
2023/07/08 04:44:32;;;;;;;7.57;7.07;;;24.60;37.00;;;;;;20804;6815;120919;-77
2023/07/08 04:46:56;;;;;;;8.15;7.45;;;24.40;37.50;;;;;;20808;6815;120892;-76
2023/07/08 04:49:22;;;;;;;7.50;6.80;;;24.40;37.50;;;;;;20785;6815;119531;-76
2023/07/08 04:51:47;;;;;;;7.67;6.90;;;24.40;37.40;;;;;;20793;6815;123616;-76
2023/07/08 04:54:14;;;;;;;7.30;6.80;;;24.30;37.30;;;;;;20595;6815;306676;-76
2023/07/08 04:56:43;;;;;;;8.17;7.40;;;24.70;37.80;;;;;;20795;6815;117790;-76
2023/07/08 04:59:13;;;;;;;8.10;7.57;;;25.10;37.20;;;;;;20550;6815;306216;-76
2023/07/08 05:01:38;;;;;;;8.63;7.93;;;25.10;37.20;;;;;;20557;6815;308817;-76
2023/07/08 05:04:05;;;;;;;7.65;6.68;;;25.50;37.50;;;;;;20823;6815;117274;-76
2023/07/08 05:06:29;;;;;;;7.30;6.70;;;25.50;36.90;;;;;;20808;6815;117012;-76
2023/07/08 05:08:54;;;;;;;7.90;7.30;;;25.30;37.00;;;;;;20592;6815;306240;-76
2023/07/08 05:11:20;;;;;;;7.32;6.62;;;25.50;38.40;;;;;;20822;6815;117333;-76
2023/07/08 05:13:45;;;;;;;8.25;7.55;;;25.30;37.60;;;;;;20572;6815;306650;-76
2023/07/08 05:16:11;;;;;;;7.47;6.80;;;25.40;37.00;;;;;;20804;6815;117496;-77
2023/07/08 05:18:37;;;;;;;8.43;7.78;;;25.20;36.90;;;;;;20587;6815;281427;-77
2023/07/08 05:21:03;;;;;;;7.97;7.37;;;25.20;36.60;;;;;;20591;6815;306616;-76
2023/07/08 05:23:30;;;;;;;8.27;7.23;;;25.40;36.80;;;;;;20678;6815;118674;-76
2023/07/08 05:26:01;;;;;;;6.90;6.33;;;25.20;36.90;;;;;;20754;6815;118451;-76
2023/07/08 05:28:25;;;;;;;8.13;7.43;;;24.70;37.80;;;;;;20757;6815;117077;-76
2023/07/08 05:30:55;;;;;;;8.40;7.60;;;24.70;37.80;;;;;;20565;6815;280351;-76
2023/07/08 05:33:19;;;;;;;8.15;7.47;;;24.90;38.50;;;;;;20560;6813;306990;-76
2023/07/08 05:35:44;;;;;;;7.23;6.70;;;25.20;38.00;;;;;;20782;6814;117876;-77
2023/07/08 05:38:10;;;;;;;8.48;7.68;;;25.20;37.80;;;;;;20576;6815;277170;-76
2023/07/08 05:40:36;;;;;;;7.80;7.18;;;25.30;37.30;;;;;;20793;6815;119695;-76
2023/07/08 05:43:02;;;;;;;7.83;7.23;;;25.20;37.20;;;;;;20788;6815;116907;-75
2023/07/08 05:45:27;;;;;;;8.50;7.78;;;25.10;37.40;;;;;;20553;6815;307183;-76
2023/07/08 05:47:53;;;;;;;8.70;7.90;;;25.20;37.70;;;;;;20587;6815;281410;-75
2023/07/08 05:50:20;;;;;;;8.67;7.77;;;25.60;37.80;;;;;;20779;6815;117057;-80
2023/07/08 05:52:45;;;;;;;7.57;6.83;;;25.50;37.60;;;;;;20783;6815;119372;-76
2023/07/08 05:55:11;;;;;;;8.43;7.80;;;25.20;38.10;;;;;;20549;6815;311150;-74
2023/07/08 05:57:36;;;;;;;7.85;7.20;;;25.40;39.00;;;;;;20777;6815;119830;-75
2023/07/08 06:00:02;;;;;;;8.60;7.73;;;25.30;38.60;;;;;;20763;6815;117515;-76
2023/07/08 06:02:28;;;;;;;8.90;8.10;;;25.00;38.80;;;;;;20560;6815;282188;-75
2023/07/08 06:04:53;;;;;;;8.60;7.93;;;25.20;39.40;;;;;;20589;6815;341183;-73
2023/07/08 06:07:20;;;;;;;8.57;7.95;;;25.60;39.30;;;;;;20562;6815;310826;-74
2023/07/08 06:09:45;;;;;;;9.57;8.70;;;25.60;38.80;;;;;;20607;6815;286809;-75
2023/07/08 06:12:11;;;;;;;7.63;7.13;;;25.80;38.40;;;;;;20825;6815;117689;-75
2023/07/08 06:14:37;;;;;;;7.13;6.50;;;25.70;38.40;;;;;;20814;6815;119767;-75
2023/07/08 06:17:02;;;;;;;8.00;7.20;;;25.30;38.70;;;;;;20810;6815;119579;-77
2023/07/08 06:19:29;;;;;;;8.80;8.10;;;25.10;39.20;;;;;;20581;6815;282617;-76
2023/07/08 06:21:55;;;;;;;8.37;7.47;;;25.20;39.10;;;;;;20808;6815;117235;-76
2023/07/08 06:24:20;;;;;;;9.33;8.00;;;25.10;38.80;;;;;;20803;6815;116236;-76
2023/07/08 06:26:46;;;;;;;8.37;7.57;;;25.00;39.00;;;;;;20806;6815;117095;-77
2023/07/08 06:29:12;;;;;;;7.67;6.87;;;24.60;39.20;;;;;;20798;6815;117134;-78
2023/07/08 06:31:39;;;;;;;7.57;6.90;;;24.60;39.20;;;;;;20794;6815;140563;-79
2023/07/08 06:34:04;;;;;;;9.52;8.32;;;24.50;39.40;;;;;;20588;6815;306612;-77
2023/07/08 06:36:30;;;;;;;10.77;7.65;;;24.80;39.90;;;;;;20820;6815;117339;-78
2023/07/08 06:38:55;;;;;;;9.27;8.38;;;24.80;39.40;;;;;;20606;6815;277546;-81
2023/07/08 06:41:21;;;;;;;12.53;8.00;;;25.00;39.40;;;;;;20818;6815;117724;-78
2023/07/08 06:43:47;;;;;;;9.10;8.07;;;25.00;39.20;;;;;;20585;6815;277331;-78
2023/07/08 06:46:12;;;;;;;8.75;8.02;;;25.20;40.00;;;;;;20599;6813;336639;-78
2023/07/08 06:48:38;;;;;;;7.87;7.17;;;25.30;39.00;;;;;;20809;6815;117449;-79
2023/07/08 06:51:04;;;;;;;7.97;7.30;;;25.30;39.00;;;;;;20800;6815;117584;-78
2023/07/08 06:53:30;;;;;;;7.60;7.00;;;25.00;38.90;;;;;;20786;6815;119683;-78
2023/07/08 06:55:55;;;;;;;8.85;7.80;;;24.80;39.00;;;;;;20592;6815;306077;-78
2023/07/08 06:58:21;;;;;;;8.10;7.40;;;25.00;38.80;;;;;;20809;6815;117650;-78
2023/07/08 07:00:46;;;;;;;8.65;7.75;;;25.00;38.60;;;;;;20589;6815;306074;-78
2023/07/08 07:03:12;;;;;;;8.80;8.10;;;25.20;38.40;;;;;;20605;6815;278107;-77
2023/07/08 07:05:42;;;;;;;7.73;7.13;;;25.60;38.10;;;;;;20582;6815;292824;-80
2023/07/08 07:08:07;;;;;;;7.63;6.93;;;25.90;37.80;;;;;;20817;6815;118373;-76
2023/07/08 07:10:33;;;;;;;8.35;7.60;;;26.00;37.60;;;;;;20604;6815;337358;-77
2023/07/08 07:12:58;;;;;;;7.65;7.00;;;26.10;37.40;;;;;;20818;6815;117053;-74
2023/07/08 07:15:24;;;;;;;8.50;7.80;;;26.10;37.40;;;;;;20589;6815;307542;-78
2023/07/08 07:17:50;;;;;;;8.38;7.55;;;26.30;37.40;;;;;;20606;6815;277142;-77
2023/07/08 07:20:15;;;;;;;7.30;6.30;;;26.80;37.00;;;;;;20810;6815;117203;-77
2023/07/08 07:22:41;;;;;;;7.85;7.15;;;26.90;36.90;;;;;;20589;6815;277216;-77
2023/07/08 07:25:06;;;;;;;7.75;7.07;;;27.10;36.20;;;;;;20598;6815;282033;-77
2023/07/08 07:27:32;;;;;;;10.13;6.37;;;27.50;35.50;;;;;;20788;6815;119752;-78
2023/07/08 07:30:01;;;;;;;7.32;6.82;;;27.70;35.50;;;;;;20598;6815;281894;-77
2023/07/08 07:32:26;;;;;;;7.40;6.87;;;28.00;35.20;;;;;;20601;6815;281481;-78
2023/07/08 07:34:52;;;;;;;7.53;6.95;;;28.40;34.90;;;;;;20587;6815;330680;-78
2023/07/08 07:37:19;;;;;;;7.05;6.43;;;28.80;34.20;;;;;;20793;6815;117138;-78
2023/07/08 07:39:44;;;;;;;6.80;6.20;;;28.80;34.20;;;;;;20768;6815;119320;-78
2023/07/08 07:42:10;;;;;;;6.20;5.70;;;28.60;34.40;;;;;;20812;6815;123264;-77
2023/07/08 07:44:36;;;;;;;7.10;6.60;;;28.60;34.70;;;;;;20596;6815;277196;-77
2023/07/08 07:47:02;;;;;;;6.80;6.20;;;28.60;34.20;;;;;;20598;6815;277609;-79
2023/07/08 07:49:27;;;;;;;7.55;6.75;;;28.90;33.90;;;;;;20570;6815;277179;-78
2023/07/08 07:51:53;;;;;;;7.37;6.40;;;29.20;33.60;;;;;;20790;6815;117411;-78
2023/07/08 07:54:18;;;;;;;6.73;6.13;;;29.10;33.70;;;;;;20797;6815;117335;-78
2023/07/08 07:56:44;;;;;;;6.90;6.30;;;28.70;34.10;;;;;;20598;6814;281469;-78
2023/07/08 07:59:09;;;;;;;6.40;5.87;;;28.70;33.90;;;;;;20813;6814;117977;-78
2023/07/08 08:01:35;;;;;;;6.37;5.87;;;28.60;34.10;;;;;;20774;6815;117605;-79
2023/07/08 08:04:00;;;;;;;7.20;6.40;;;28.40;34.50;;;;;;20581;6815;294534;-78
2023/07/08 08:06:26;;;;;;;6.07;5.67;;;28.50;34.30;;;;;;20790;6815;117127;-78
2023/07/08 08:08:52;;;;;;;6.90;6.30;;;28.60;34.10;;;;;;20590;6815;298040;-78
2023/07/08 08:11:18;;;;;;;6.53;5.93;;;28.60;33.90;;;;;;20596;6815;310228;-78
2023/07/08 08:13:43;;;;;;;6.68;6.18;;;28.90;33.80;;;;;;20577;6815;306650;-78
2023/07/08 08:16:09;;;;;;;6.07;5.67;;;29.20;33.30;;;;;;20794;6815;117591;-78
2023/07/08 08:18:35;;;;;;;6.53;6.03;;;29.00;33.40;;;;;;20579;6815;282222;-77
2023/07/08 08:21:00;;;;;;;6.60;6.10;;;29.00;33.50;;;;;;20584;6815;311104;-77
2023/07/08 08:23:26;;;;;;;6.75;6.10;;;29.20;33.30;;;;;;20577;6815;276814;-78
2023/07/08 08:25:51;;;;;;;6.20;5.70;;;29.20;33.20;;;;;;20813;6815;117617;-77
2023/07/08 08:28:17;;;;;;;6.30;5.80;;;29.10;33.50;;;;;;20601;6815;277758;-77
2023/07/08 08:30:42;;;;;;;6.53;5.87;;;29.20;33.60;;;;;;20600;6815;315290;-77
2023/07/08 08:33:09;;;;;;;6.03;5.53;;;29.20;33.90;;;;;;20801;6815;122954;-76
2023/07/08 08:35:36;;;;;;;6.80;6.30;;;29.20;33.30;;;;;;20592;6815;276337;-78
2023/07/08 08:38:02;;;;;;;7.00;6.50;;;29.20;33.80;;;;;;20600;6815;311709;-77
2023/07/08 08:40:27;;;;;;;6.75;6.25;;;29.30;34.10;;;;;;20592;6815;288822;-77
2023/07/08 08:43:03;;;;;;;6.10;5.57;;;29.40;34.50;;;;;;20773;6815;117170;-78
2023/07/08 08:45:41;;;;;;;7.20;6.53;;;29.20;34.70;;;;;;20541;6815;309251;-80
2023/07/08 08:48:07;;;;;;;9.20;7.97;;;29.10;34.20;;;;;;20491;6815;314125;-77
2023/07/08 08:50:53;;;;;;;6.90;6.20;;;29.30;33.70;;;;;;20717;6815;116897;-74
2023/07/08 08:53:19;;;;;;;6.43;5.80;;;29.10;34.00;;;;;;20752;6815;117554;-72
2023/07/08 08:55:51;;;;;;;7.22;6.60;;;28.80;34.50;;;;;;20486;6815;329233;-75
2023/07/08 08:58:24;;;;;;;6.63;6.07;;;28.90;35.80;;;;;;20752;6815;117031;-75
2023/07/08 09:00:56;;;;;;;6.63;6.07;;;28.90;36.00;;;;;;20775;6815;120448;-72
2023/07/08 09:03:23;;;;;;;8.30;6.80;;;28.90;35.80;;;;;;20559;6815;306627;-75
2023/07/08 09:05:50;;;;;;;8.37;6.53;;;29.30;35.90;;;;;;19902;6815;308265;-73
2023/07/08 09:08:18;;;;;;;6.70;6.10;;;29.20;35.80;;;;;;20775;6813;120281;-75
2023/07/08 09:10:53;;;;;;;8.33;6.60;;;29.20;35.50;;;;;;20548;6814;325174;-79
2023/07/08 09:13:33;;;;;;;7.37;6.50;;;29.30;35.10;;;;;;20761;6815;120053;-74
2023/07/08 09:16:25;;;;;;;6.60;5.93;;;29.10;35.90;;;;;;20746;6815;117172;-73
2023/07/08 09:19:11;;;;;;;6.93;5.90;;;29.00;35.60;;;;;;20750;6815;122915;-73
2023/07/08 09:21:36;;;;;;;5.63;5.23;;;28.80;35.80;;;;;;20698;6815;117935;-73
2023/07/08 09:24:02;;;;;;;7.30;6.20;;;28.70;35.40;;;;;;20514;6815;308071;-73
2023/07/08 09:26:27;;;;;;;6.03;5.43;;;28.90;34.60;;;;;;20776;6815;117167;-76
2023/07/08 09:28:53;;;;;;;12.50;5.53;;;28.90;34.50;;;;;;20779;6815;119976;-72
2023/07/08 09:31:18;;;;;;;6.62;5.53;;;28.70;34.40;;;;;;20551;6815;277682;-72
2023/07/08 09:33:44;;;;;;;6.03;5.40;;;28.90;33.80;;;;;;20514;6815;289231;-72
2023/07/08 09:36:26;;;;;;;4.95;4.55;;;29.20;33.50;;;;;;20804;6815;117949;-72
2023/07/08 09:38:51;;;;;;;5.43;5.03;;;29.20;33.50;;;;;;20797;6815;120157;-72
2023/07/08 09:41:31;;;;;;;5.20;4.70;;;29.00;34.00;;;;;;20808;6815;117115;-72
2023/07/08 09:44:06;;;;;;;5.70;5.00;;;28.90;34.10;;;;;;20559;6815;306856;-72
2023/07/08 09:46:35;;;;;;;6.80;5.27;;;29.50;33.20;;;;;;20562;6815;307045;-77
2023/07/08 09:49:01;;;;;;;5.00;4.50;;;29.50;33.10;;;;;;20799;6815;119662;-73
2023/07/08 09:51:28;;;;;;;5.55;5.07;;;29.70;33.10;;;;;;20540;6815;334673;-75
2023/07/08 09:53:54;;;;;;;5.30;4.90;;;30.00;33.20;;;;;;20592;6815;309107;-77
2023/07/08 09:56:20;;;;;;;4.87;4.50;;;30.00;33.20;;;;;;20815;6815;120823;-76
2023/07/08 09:58:48;;;;;;;5.28;4.87;;;30.00;33.00;;;;;;20813;6815;120959;-75
2023/07/08 10:01:18;;;;;;;4.80;4.40;;;29.80;32.60;;;;;;20798;6815;123755;-76
2023/07/08 10:03:43;;;;;;;5.30;4.80;;;29.50;32.90;;;;;;20543;6815;319050;-74
2023/07/08 10:06:16;;;;;;;6.62;4.60;;;29.60;33.00;;;;;;20812;6815;117383;-78
2023/07/08 10:08:44;;;;;;;4.73;4.43;;;29.70;33.10;;;;;;20809;6815;117369;-77
2023/07/08 10:11:20;;;;;;;5.00;4.60;;;29.60;33.30;;;;;;20792;6815;117117;-76
2023/07/08 10:13:46;;;;;;;5.17;4.77;;;29.50;33.50;;;;;;20784;6815;117383;-74
2023/07/08 10:16:18;;;;;;;5.18;4.68;;;29.50;33.50;;;;;;20586;6815;344845;-74
2023/07/08 10:18:44;;;;;;;4.90;4.40;;;29.80;33.50;;;;;;20600;6815;276731;-74
2023/07/08 10:21:13;;;;;;;4.53;4.20;;;30.40;32.20;;;;;;20820;6814;118209;-76
2023/07/08 10:23:39;;;;;;;8.00;4.30;;;30.60;31.90;;;;;;20766;6815;117486;-74
2023/07/08 10:26:11;;;;;;;5.22;4.72;;;30.70;32.30;;;;;;20413;6815;279388;-79
2023/07/08 10:28:47;;;;;;;5.10;4.60;;;30.70;32.00;;;;;;20593;6815;277119;-79
2023/07/08 10:31:29;;;;;;;4.70;4.33;;;31.20;31.60;;;;;;20562;6815;306614;-77
2023/07/08 10:33:57;;;;;;;6.37;4.43;;;31.60;31.50;;;;;;20821;6815;117271;-73
2023/07/08 10:36:39;;;;;;;4.00;3.70;;;31.80;31.00;;;;;;20810;6815;117091;-73
2023/07/08 10:39:05;;;;;;;4.50;4.10;;;31.70;30.80;;;;;;20589;6815;306997;-73
2023/07/08 10:41:30;;;;;;;4.70;4.00;;;31.90;30.70;;;;;;20768;6815;123283;-74
2023/07/08 10:43:59;;;;;;;4.12;3.83;;;32.00;30.30;;;;;;20587;6815;281353;-77
2023/07/08 10:46:33;;;;;;;3.70;3.40;;;32.20;30.00;;;;;;20808;6815;117506;-76
2023/07/08 10:49:22;;;;;;;3.80;3.37;;;32.30;30.20;;;;;;20795;6815;117578;-76
2023/07/08 10:51:47;;;;;;;3.63;3.33;;;32.30;30.60;;;;;;20467;6815;120021;-79
2023/07/08 10:54:20;;;;;;;4.80;3.60;;;32.40;30.70;;;;;;20764;6815;117163;-73
2023/07/08 10:57:05;;;;;;;3.93;3.50;;;32.50;30.50;;;;;;20566;6815;276693;-75
2023/07/08 10:59:44;;;;;;;5.30;3.60;;;32.80;28.80;;;;;;20577;6815;306505;-73
2023/07/08 11:02:16;;;;;;;5.17;3.90;;;33.20;28.90;;;;;;20564;6815;306608;-76
2023/07/08 11:05:05;;;;;;;4.03;3.70;;;33.50;28.90;;;;;;20606;6815;277186;-75
2023/07/08 11:07:37;;;;;;;3.90;3.60;;;33.70;27.90;;;;;;20553;6815;310671;-76
2023/07/08 11:10:16;;;;;;;3.80;3.50;;;33.90;28.20;;;;;;20776;6815;117692;-77
2023/07/08 11:12:42;;;;;;;3.30;3.10;;;33.90;28.50;;;;;;20237;6815;119742;-76
2023/07/08 11:15:11;;;;;;;3.03;2.80;;;33.70;28.80;;;;;;20787;6815;117708;-77
2023/07/08 11:17:36;;;;;;;3.43;3.10;;;33.50;28.60;;;;;;20570;6815;300430;-78
2023/07/08 11:20:02;;;;;;;3.80;3.33;;;33.60;28.20;;;;;;20564;6815;308512;-77
2023/07/08 11:22:27;;;;;;;3.37;3.07;;;33.70;27.70;;;;;;20761;6815;117112;-75
2023/07/08 11:24:55;;;;;;;3.63;3.33;;;33.60;27.80;;;;;;20584;6815;310984;-79
2023/07/08 11:27:26;;;;;;;3.50;3.30;;;33.60;28.20;;;;;;20567;6815;314183;-78
2023/07/08 11:29:56;;;;;;;3.37;3.07;;;33.80;28.40;;;;;;20782;6815;121601;-79
2023/07/08 11:32:22;;;;;;;4.00;3.17;;;33.80;28.30;;;;;;20576;6813;294872;-78
2023/07/08 11:34:56;;;;;;;3.90;3.23;;;33.90;28.40;;;;;;20586;6815;280321;-75
2023/07/08 11:37:21;;;;;;;3.57;3.27;;;34.10;28.40;;;;;;20317;6815;312948;-83
2023/07/08 11:40:07;;;;;;;3.10;2.90;;;34.30;28.10;;;;;;20698;6828;122083;-77
2023/07/08 11:42:35;;;;;;;4.43;3.67;;;34.40;28.20;;;;;;20391;6815;277376;-79
2023/07/08 11:45:01;;;;;;;3.27;2.50;;;34.40;28.20;;;;;;20772;6815;118133;-76
2023/07/08 11:47:39;;;;;;;4.70;2.83;;;34.40;28.00;;;;;;20548;6815;307386;-76
2023/07/08 11:50:25;;;;;;;3.47;2.57;;;34.50;27.00;;;;;;20750;6815;117672;-77
2023/07/08 11:52:51;;;;;;;2.70;2.50;;;34.30;26.70;;;;;;20743;6815;117240;-76
2023/07/08 11:55:18;;;;;;;2.60;2.40;;;34.00;27.10;;;;;;20565;6815;310391;-77
2023/07/08 11:57:44;;;;;;;3.23;2.43;;;34.20;26.80;;;;;;20750;6815;116911;-77
2023/07/08 12:00:19;;;;;;;2.70;2.60;;;34.20;26.80;;;;;;20791;6815;117850;-75
2023/07/08 12:02:48;;;;;;;2.50;2.30;;;34.00;27.00;;;;;;20755;6815;117184;-76
2023/07/08 12:05:15;;;;;;;4.10;2.70;;;33.90;27.20;;;;;;20406;6815;311788;-77
2023/07/08 12:07:40;;;;;;;2.60;2.40;;;33.90;26.60;;;;;;20739;6815;119750;-84
2023/07/08 12:10:22;;;;;;;4.57;2.60;;;33.90;26.70;;;;;;20499;6815;280034;-79
2023/07/08 12:12:49;;;;;;;3.25;2.80;;;34.30;26.50;;;;;;20469;6815;311429;-79
2023/07/08 12:15:22;;;;;;;2.83;2.63;;;34.20;26.60;;;;;;20683;6815;118868;-78
2023/07/08 12:17:48;;;;;;;2.57;2.37;;;34.00;26.80;;;;;;20734;6815;119558;-77
2023/07/08 12:20:20;;;;;;;2.50;2.40;;;33.80;26.80;;;;;;20730;6815;118903;-79
2023/07/08 12:22:46;;;;;;;2.30;2.20;;;33.70;26.80;;;;;;20698;6815;117979;-77
2023/07/08 12:25:16;;;;;;;2.73;2.30;;;33.60;26.70;;;;;;20773;6815;118135;-76
2023/07/08 12:27:40;;;;;;;2.90;2.65;;;33.50;26.90;;;;;;20557;6815;340507;-76
2023/07/08 12:30:06;;;;;;;2.87;2.40;;;33.60;26.70;;;;;;20770;6815;118350;-77
2023/07/08 12:32:32;;;;;;;2.70;2.50;;;33.70;27.00;;;;;;20586;6815;306663;-77
2023/07/08 12:34:58;;;;;;;2.50;2.30;;;33.80;26.60;;;;;;20800;6815;117244;-76
2023/07/08 12:37:23;;;;;;;2.10;2.00;;;33.80;26.90;;;;;;20791;6815;117107;-76